createdAt,value
2022-09-28T00:01:19.187Z,99380.28
2022-09-28T00:03:48.475Z,99368.22
2022-09-28T00:06:19.427Z,99378.59
2022-09-28T00:08:46.833Z,99385.56
2022-09-28T00:11:15.487Z,99376.03
2022-09-28T00:13:43.823Z,99376.06
2022-09-28T00:16:14.596Z,99382.22
2022-09-28T00:18:42.093Z,99384.81
2022-09-28T00:21:13.731Z,99382.22
2022-09-28T00:24:00.288Z,99379.59
2022-09-28T00:26:29.197Z,99382.31
2022-09-28T00:28:59.843Z,99384.19
2022-09-28T00:31:30.118Z,99376.44
2022-09-28T00:33:57.167Z,99372.25
2022-09-28T00:36:26.955Z,99382.59
2022-09-28T00:38:58.292Z,99380.88
2022-09-28T00:41:27.522Z,99380.91
2022-09-28T00:44:28.328Z,99372.28
2022-09-28T00:47:09.040Z,99364.47
2022-09-28T00:50:03.199Z,99366.28
2022-09-28T00:52:53.200Z,99368.06
2022-09-28T00:55:29.693Z,99369.88
2022-09-28T00:58:00.373Z,99362.97
2022-09-28T01:00:28.107Z,99370.06
2022-09-28T01:02:55.408Z,99369.06
2022-09-28T01:05:24.240Z,99361.22
2022-09-28T01:07:51.306Z,99366.50
2022-09-28T01:10:18.340Z,99356.97
2022-09-28T01:12:45.287Z,99354.31
2022-09-28T01:15:12.387Z,99352.63
2022-09-28T01:18:11.710Z,99362.28
2022-09-28T01:21:17.351Z,99360.59
2022-09-28T01:24:10.368Z,99364.97
2022-09-28T01:27:11.687Z,99363.31
2022-09-28T01:29:48.317Z,99358.06
2022-09-28T01:32:56.248Z,99355.47
2022-09-28T01:35:52.755Z,99352.88
2022-09-28T01:38:49.252Z,99355.56
2022-09-28T01:41:17.910Z,99359.94
2022-09-28T01:43:57.570Z,99351.16
2022-09-28T01:46:32.983Z,99347.72
2022-09-28T01:49:08.852Z,99352.00
2022-09-28T01:51:45.960Z,99353.78
2022-09-28T01:54:21.343Z,99351.16
2022-09-28T01:56:57.825Z,99349.41
2022-09-28T01:59:32.480Z,99348.56
2022-09-28T02:02:05.865Z,99349.41
2022-09-28T02:04:50.691Z,99352.94
2022-09-28T02:07:49.861Z,99345.19
2022-09-28T02:10:23.080Z,99346.06
2022-09-28T02:13:13.748Z,99347.84
2022-09-28T02:15:45.832Z,99353.91
2022-09-28T02:18:13.300Z,99355.78
2022-09-28T02:20:47.619Z,99358.38
2022-09-28T02:23:16.417Z,99354.91
2022-09-28T02:25:49.815Z,99358.53
2022-09-28T02:28:18.868Z,99357.47
2022-09-28T02:30:46.188Z,99361.03
2022-09-28T02:33:43.402Z,99348.16
2022-09-28T02:36:10.976Z,99356.81
2022-09-28T02:38:38.923Z,99348.97
2022-09-28T02:41:39.971Z,99348.19
2022-09-28T02:44:53.567Z,99350.88
2022-09-28T02:48:03.447Z,99350.97
2022-09-28T02:50:53.395Z,99353.63
2022-09-28T02:53:37.186Z,99356.25
2022-09-28T02:56:44.119Z,99352.88
2022-09-28T02:59:36.399Z,99358.19
2022-09-28T03:02:26.423Z,99351.31
2022-09-28T03:05:16.966Z,99355.69
2022-09-28T03:07:54.562Z,99355.91
2022-09-28T03:10:40.957Z,99354.28
2022-09-28T03:13:09.146Z,99359.41
2022-09-28T03:15:37.211Z,99363.72
2022-09-28T03:18:04.441Z,99366.34
2022-09-28T03:20:33.623Z,99357.78
2022-09-28T03:25:48.824Z,99356.84
2022-09-28T03:28:15.699Z,99348.16
2022-09-28T03:30:43.465Z,99361.13
2022-09-28T03:33:10.567Z,99342.84
2022-09-28T03:35:38.459Z,99347.97
2022-09-28T03:38:05.388Z,99351.50
2022-09-28T03:40:34.635Z,99349.81
2022-09-28T03:43:01.654Z,99343.69
2022-09-28T03:45:29.004Z,99340.22
2022-09-28T03:47:55.928Z,99344.53
2022-09-28T03:50:22.833Z,99342.75
2022-09-28T03:52:49.688Z,99345.34
2022-09-28T03:55:17.263Z,99347.09
2022-09-28T03:57:44.162Z,99341.84
2022-09-28T04:00:11.738Z,99341.03
2022-09-28T04:02:41.229Z,99336.63
2022-09-28T04:05:09.305Z,99337.41
2022-09-28T04:07:37.727Z,99339.19
2022-09-28T04:10:04.889Z,99337.47
2022-09-28T04:12:32.181Z,99340.09
2022-09-28T04:14:59.065Z,99340.09
2022-09-28T04:17:25.972Z,99333.09
2022-09-28T04:19:53.543Z,99336.56
2022-09-28T04:22:32.213Z,99340.94
2022-09-28T04:24:59.142Z,99326.97
2022-09-28T04:27:44.917Z,99329.56
2022-09-28T04:30:12.466Z,99328.66
2022-09-28T04:32:41.929Z,99324.31
2022-09-28T04:35:11.936Z,99330.41
2022-09-28T04:37:38.795Z,99335.59
2022-09-28T04:40:07.831Z,99333.03
2022-09-28T04:42:34.847Z,99332.91
2022-09-28T04:45:02.205Z,99337.22
2022-09-28T04:47:30.527Z,99334.56
2022-09-28T04:50:18.947Z,99335.50
2022-09-28T04:53:04.600Z,99345.06
2022-09-28T04:55:32.603Z,99332.91
2022-09-28T04:58:02.954Z,99332.09
2022-09-28T05:00:35.283Z,99340.75
2022-09-28T05:03:11.633Z,99341.69
2022-09-28T05:05:58.785Z,99337.31
2022-09-28T05:08:43.453Z,99337.41
2022-09-28T05:11:14.211Z,99336.53
2022-09-28T05:13:45.696Z,99327.09
2022-09-28T05:16:16.204Z,99334.88
2022-09-28T05:19:06.966Z,99327.91
2022-09-28T05:21:34.162Z,99316.81
2022-09-28T05:24:01.224Z,99319.41
2022-09-28T05:26:28.160Z,99331.41
2022-09-28T05:28:55.058Z,99335.72
2022-09-28T05:31:40.541Z,99332.19
2022-09-28T05:34:14.582Z,99332.16
2022-09-28T05:36:42.791Z,99327.78
2022-09-28T05:39:09.758Z,99322.50
2022-09-28T05:41:36.726Z,99312.97
2022-09-28T05:44:03.992Z,99317.31
2022-09-28T05:46:31.091Z,99323.28
2022-09-28T05:49:00.603Z,99329.31
2022-09-28T05:51:28.363Z,99329.25
2022-09-28T05:53:57.084Z,99333.53
2022-09-28T05:56:26.992Z,99333.44
2022-09-28T05:58:53.924Z,99335.09
2022-09-28T06:01:22.899Z,99333.28
2022-09-28T06:03:49.963Z,99341.91
2022-09-28T06:06:16.848Z,99334.03
2022-09-28T06:08:48.336Z,99337.47
2022-09-28T06:11:33.758Z,99344.38
2022-09-28T06:14:06.663Z,99343.47
2022-09-28T06:16:34.900Z,99346.03
2022-09-28T06:19:02.301Z,99337.25
2022-09-28T06:21:42.528Z,99337.25
2022-09-28T06:24:09.483Z,99343.34
2022-09-28T06:26:37.389Z,99328.63
2022-09-28T06:29:05.293Z,99344.09
2022-09-28T06:31:32.303Z,99338.84
2022-09-28T06:34:01.828Z,99346.59
2022-09-28T06:36:31.280Z,99352.69
2022-09-28T06:38:58.290Z,99351.78
2022-09-28T06:41:25.263Z,99343.16
2022-09-28T06:43:52.248Z,99358.72
2022-09-28T06:46:38.809Z,99350.84
2022-09-28T06:49:27.769Z,99349.91
2022-09-28T06:52:13.035Z,99353.44
2022-09-28T06:54:58.333Z,99356.03
2022-09-28T06:57:40.924Z,99358.56
2022-09-28T07:00:08.757Z,99352.41
2022-09-28T07:02:35.906Z,99355.84
2022-09-28T07:05:13.852Z,99361.13
2022-09-28T07:07:58.418Z,99361.13
2022-09-28T07:10:56.343Z,99359.31
2022-09-28T07:13:50.368Z,99353.13
2022-09-28T07:16:24.268Z,99357.38
2022-09-28T07:18:53.550Z,99363.34
2022-09-28T07:21:28.811Z,99354.63
2022-09-28T07:23:57.198Z,99370.16
2022-09-28T07:26:25.598Z,99352.94
2022-09-28T07:29:03.517Z,99364.00
2022-09-28T07:31:48.759Z,99364.09
2022-09-28T07:34:41.229Z,99365.81
2022-09-28T07:37:18.796Z,99361.59
2022-09-28T07:40:05.389Z,99368.38
2022-09-28T07:42:36.255Z,99365.66
2022-09-28T07:45:03.618Z,99371.72
2022-09-28T07:47:34.891Z,99371.69
2022-09-28T07:50:13.079Z,99373.38
2022-09-28T07:52:49.396Z,99359.41
2022-09-28T07:55:30.006Z,99358.44
2022-09-28T07:58:14.435Z,99375.63
2022-09-28T08:01:01.081Z,99366.78
2022-09-28T08:03:28.296Z,99357.94
2022-09-28T08:06:00.314Z,99365.47
2022-09-28T08:08:27.537Z,99365.28
2022-09-28T08:13:46.357Z,99359.63
2022-09-28T08:16:28.101Z,99360.34
2022-09-28T08:19:14.257Z,99356.63
2022-09-28T08:21:47.369Z,99354.72
2022-09-28T08:24:16.655Z,99353.84
2022-09-28T08:26:44.855Z,99352.06
2022-09-28T08:29:15.272Z,99349.50
2022-09-28T08:31:51.205Z,99353.16
2022-09-28T08:34:40.351Z,99351.38
2022-09-28T08:37:23.648Z,99349.81
2022-09-28T08:40:20.394Z,99353.16
2022-09-28T08:43:04.610Z,99353.00
2022-09-28T08:45:59.397Z,99349.09
2022-09-28T08:49:25.759Z,99350.34
2022-09-28T08:52:26.275Z,99344.00
2022-09-28T08:55:36.828Z,99351.47
2022-09-28T08:58:17.016Z,99352.28
2022-09-28T09:00:50.356Z,99354.00
2022-09-28T09:03:29.911Z,99350.53
2022-09-28T09:06:46.712Z,99360.97
2022-09-28T09:10:04.215Z,99359.19
2022-09-28T09:13:11.366Z,99353.84
2022-09-28T09:16:15.174Z,99356.31
2022-09-28T09:19:38.143Z,99359.50
2022-09-28T09:22:45.197Z,99360.97
2022-09-28T09:25:42.819Z,99359.63
2022-09-28T09:28:43.620Z,99353.09
2022-09-28T09:31:38.226Z,99359.91
2022-09-28T09:34:47.052Z,99365.56
2022-09-28T09:38:20.558Z,99372.16
2022-09-28T09:41:36.421Z,99368.22
2022-09-28T09:45:03.624Z,99366.28
2022-09-28T09:48:12.535Z,99371.16
2022-09-28T09:50:49.674Z,99369.97
2022-09-28T09:53:29.528Z,99367.16
2022-09-28T09:56:15.844Z,99365.34
2022-09-28T09:59:10.069Z,99366.19
2022-09-28T10:01:46.407Z,99370.53
2022-09-28T10:04:40.849Z,99368.69
2022-09-28T10:07:42.578Z,99368.69
2022-09-28T10:10:24.028Z,99361.66
2022-09-28T10:12:54.115Z,99374.66
2022-09-28T10:15:31.591Z,99372.13
2022-09-28T10:18:16.587Z,99374.75
2022-09-28T10:21:02.108Z,99376.44
2022-09-28T10:23:44.868Z,99375.66
2022-09-28T10:26:29.330Z,99385.47
2022-09-28T10:29:03.098Z,99379.50
2022-09-28T10:31:51.374Z,99382.34
2022-09-28T10:34:35.760Z,99373.69
2022-09-28T10:37:11.404Z,99371.28
2022-09-28T10:39:59.220Z,99378.31
2022-09-28T10:42:32.835Z,99386.22
2022-09-28T10:45:05.182Z,99383.69
2022-09-28T10:47:35.704Z,99383.81
2022-09-28T10:50:27.617Z,99387.41
2022-09-28T10:53:20.474Z,99387.50
2022-09-28T10:56:18.464Z,99390.19
2022-09-28T10:58:46.897Z,99384.13
2022-09-28T11:01:29.383Z,99392.91
2022-09-28T11:04:01.700Z,99387.78
2022-09-28T11:06:32.060Z,99390.47
2022-09-28T11:09:27.223Z,99375.97
2022-09-28T11:12:02.939Z,99387.91
2022-09-28T11:14:41.140Z,99380.28
2022-09-28T11:17:30.824Z,99392.22
2022-09-28T11:20:24.710Z,99386.88
2022-09-28T11:23:20.689Z,99379.88
2022-09-28T11:26:20.508Z,99386.75
2022-09-28T11:28:52.795Z,99383.13
2022-09-28T11:31:29.508Z,99384.66
2022-09-28T11:34:57.532Z,99385.22
2022-09-28T11:38:09.572Z,99393.59
2022-09-28T11:41:07.432Z,99393.16
2022-09-28T11:43:54.548Z,99388.72
2022-09-28T11:47:26.223Z,99391.69
2022-09-28T11:50:40.077Z,99387.88
2022-09-28T11:53:44.024Z,99390.72
2022-09-28T11:56:42.038Z,99391.25
2022-09-28T11:59:12.028Z,99395.06
2022-09-28T12:01:52.424Z,99391.03
2022-09-28T12:05:27.015Z,99398.28
2022-09-28T12:08:18.728Z,99395.03
2022-09-28T12:11:20.615Z,99396.91
2022-09-28T12:14:43.176Z,99397.16
2022-09-28T12:17:35.537Z,99394.19
2022-09-28T12:20:27.339Z,99389.47
2022-09-28T12:22:59.459Z,99389.13
2022-09-28T12:25:33.356Z,99385.31
2022-09-28T12:28:26.833Z,99393.03
2022-09-28T12:30:57.492Z,99386.59
2022-09-28T12:33:24.581Z,99385.31
2022-09-28T12:36:48.811Z,99381.44
2022-09-28T12:40:00.399Z,99380.13
2022-09-28T12:43:20.028Z,99379.13
2022-09-28T12:46:17.269Z,99371.34
2022-09-28T12:50:01.869Z,99377.00
2022-09-28T12:52:23.224Z,99372.88
2022-09-28T12:55:21.943Z,99376.56
2022-09-28T12:58:10.972Z,99365.34
2022-09-28T13:01:17.063Z,99375.41
2022-09-28T13:04:02.199Z,99378.69
2022-09-28T13:07:06.616Z,99377.63
2022-09-28T13:09:58.425Z,99371.09
2022-09-28T13:13:00.121Z,99378.34
2022-09-28T13:15:43.428Z,99379.78
2022-09-28T13:18:38.550Z,99374.91
2022-09-28T13:21:36.301Z,99376.84
2022-09-28T13:24:27.867Z,99380.19
2022-09-28T13:26:54.775Z,99375.78
2022-09-28T13:29:23.073Z,99380.97
2022-09-28T13:31:59.238Z,99379.34
2022-09-28T13:34:30.156Z,99381.75
2022-09-28T13:37:16.783Z,99384.47
2022-09-28T13:39:53.602Z,99386.22
2022-09-28T13:42:44.815Z,99393.34
2022-09-28T13:45:20.642Z,99393.56
2022-09-28T13:48:20.457Z,99390.38
2022-09-28T13:51:32.233Z,99401.34
2022-09-28T13:54:27.569Z,99402.34
2022-09-28T13:57:19.579Z,99398.97
2022-09-28T14:00:38.131Z,99400.94
2022-09-28T14:03:27.539Z,99398.06
2022-09-28T14:06:11.516Z,99404.53
2022-09-28T14:09:23.841Z,99407.56
2022-09-28T14:12:15.999Z,99401.69
2022-09-28T14:14:50.265Z,99404.56
2022-09-28T14:17:25.814Z,99409.84
2022-09-28T14:20:11.194Z,99395.31
2022-09-28T14:23:09.080Z,99406.75
2022-09-28T14:25:59.181Z,99413.84
2022-09-28T14:29:06.037Z,99407.00
2022-09-28T14:31:42.689Z,99428.34
2022-09-28T14:34:34.107Z,99432.41
2022-09-28T14:37:23.891Z,99432.13
2022-09-28T14:40:10.205Z,99432.03
2022-09-28T14:42:37.144Z,99446.94
2022-09-28T14:45:06.644Z,99447.06
2022-09-28T14:48:03.135Z,99450.69
2022-09-28T14:50:30.409Z,99452.59
2022-09-28T14:53:12.412Z,99454.41
2022-09-28T14:56:00.542Z,99454.59
2022-09-28T14:58:29.829Z,99453.56
2022-09-28T15:01:12.602Z,99463.31
2022-09-28T15:03:42.575Z,99456.31
2022-09-28T15:06:16.156Z,99447.56
2022-09-28T15:08:43.321Z,99447.56
2022-09-28T15:11:23.467Z,99452.88
2022-09-28T15:13:55.591Z,99458.00
2022-09-28T15:16:24.588Z,99445.06
2022-09-28T15:19:34.377Z,99448.72
2022-09-28T15:22:01.288Z,99446.88
2022-09-28T15:24:34.692Z,99451.41
2022-09-28T15:27:10.239Z,99457.44
2022-09-28T15:29:37.144Z,99453.91
2022-09-28T15:32:04.673Z,99458.25
2022-09-28T15:34:51.584Z,99460.91
2022-09-28T15:37:39.638Z,99460.28
2022-09-28T15:40:16.687Z,99458.00
2022-09-28T15:42:45.249Z,99459.94
2022-09-28T15:45:26.700Z,99465.47
2022-09-28T15:48:18.533Z,99463.97
2022-09-28T15:51:12.208Z,99464.22
2022-09-28T15:54:10.811Z,99472.19
2022-09-28T15:57:02.387Z,99464.63
2022-09-28T15:59:36.751Z,99467.47
2022-09-28T16:02:22.669Z,99467.75
2022-09-28T16:04:59.055Z,99469.59
2022-09-28T16:07:41.627Z,99468.03
2022-09-28T16:10:15.316Z,99473.41
2022-09-28T16:12:54.501Z,99471.88
2022-09-28T16:15:29.262Z,99470.31
2022-09-28T16:18:03.333Z,99476.56
2022-09-28T16:20:34.122Z,99477.59
2022-09-28T16:23:18.264Z,99463.97
2022-09-28T16:26:05.827Z,99476.38
2022-09-28T16:28:38.063Z,99480.03
2022-09-28T16:31:24.203Z,99485.56
2022-09-28T16:33:58.942Z,99484.78
2022-09-28T16:36:29.828Z,99479.69
2022-09-28T16:38:56.746Z,99482.50
2022-09-28T16:41:26.886Z,99487.94
2022-09-28T16:44:02.357Z,99481.94
2022-09-28T16:46:37.347Z,99486.44
2022-09-28T16:49:06.746Z,99484.00
2022-09-28T16:51:33.963Z,99487.56
2022-09-28T16:54:34.857Z,99497.25
2022-09-28T16:57:03.620Z,99491.28
2022-09-28T16:59:30.797Z,99486.25
2022-09-28T17:01:57.821Z,99500.19
2022-09-28T17:04:25.796Z,99494.19
2022-09-28T17:06:54.833Z,99507.31
2022-09-28T17:09:22.773Z,99500.47
2022-09-28T17:11:56.009Z,99503.97
2022-09-28T17:14:24.113Z,99504.13
2022-09-28T17:17:13.774Z,99498.19
2022-09-28T17:19:41.207Z,99494.09
2022-09-28T17:22:11.468Z,99513.91
2022-09-28T17:24:38.352Z,99512.22
2022-09-28T17:27:06.849Z,99511.38
2022-09-28T17:29:33.762Z,99520.06
2022-09-28T17:32:00.619Z,99520.06
2022-09-28T17:34:27.502Z,99515.69
2022-09-28T17:36:54.718Z,99520.97
2022-09-28T17:39:21.870Z,99527.91
2022-09-28T17:41:48.750Z,99517.69
2022-09-28T17:44:16.233Z,99526.25
2022-09-28T17:46:47.411Z,99529.81
2022-09-28T17:49:15.260Z,99530.72
2022-09-28T17:51:42.209Z,99528.19
2022-09-28T17:54:09.406Z,99534.31
2022-09-28T17:56:36.738Z,99532.69
2022-09-28T17:59:10.282Z,99536.22
2022-09-28T18:01:39.599Z,99540.75
2022-09-28T18:04:08.843Z,99534.63
2022-09-28T18:06:37.397Z,99539.94
2022-09-28T18:09:05.565Z,99549.56
2022-09-28T18:11:33.704Z,99536.63
2022-09-28T18:14:01.218Z,99546.25
2022-09-28T18:16:29.165Z,99542.84
2022-09-28T18:18:56.338Z,99545.56
2022-09-28T18:21:23.447Z,99547.34
2022-09-28T18:23:50.598Z,99545.69
2022-09-28T18:26:19.557Z,99553.53
2022-09-28T18:28:46.687Z,99557.97
2022-09-28T18:31:15.469Z,99554.53
2022-09-28T18:33:43.295Z,99556.31
2022-09-28T18:36:10.241Z,99560.72
2022-09-28T18:38:38.143Z,99555.50
2022-09-28T18:41:15.579Z,99563.44
2022-09-28T18:43:49.144Z,99567.03
2022-09-28T18:46:20.069Z,99569.63
2022-09-28T18:48:49.864Z,99561.81
2022-09-28T18:51:16.780Z,99572.28
2022-09-28T18:53:43.826Z,99573.97
2022-09-28T18:56:17.011Z,99566.22
2022-09-28T18:58:45.487Z,99574.88
2022-09-28T19:01:31.729Z,99577.41
2022-09-28T19:04:01.213Z,99575.66
2022-09-28T19:06:29.917Z,99579.16
2022-09-28T19:08:57.090Z,99580.00
2022-09-28T19:11:25.245Z,99588.69
2022-09-28T19:13:54.504Z,99585.22
2022-09-28T19:16:28.701Z,99584.38
2022-09-28T19:18:59.880Z,99589.63
2022-09-28T19:21:27.301Z,99582.69
2022-09-28T19:23:55.497Z,99586.19
2022-09-28T19:26:28.411Z,99586.25
2022-09-28T19:28:59.191Z,99590.63
2022-09-28T19:31:27.185Z,99588.91
2022-09-28T19:33:54.239Z,99588.09
2022-09-28T19:36:25.016Z,99588.13
2022-09-28T19:38:57.033Z,99595.09
2022-09-28T19:41:49.210Z,99597.72
2022-09-28T19:44:25.787Z,99596.97
2022-09-28T19:47:06.599Z,99599.56
2022-09-28T19:49:36.910Z,99601.28
2022-09-28T19:52:15.882Z,99597.88
2022-09-28T19:54:57.381Z,99597.06
2022-09-28T19:57:32.446Z,99601.53
2022-09-28T20:00:03.165Z,99598.03
2022-09-28T20:02:34.786Z,99597.22
2022-09-28T20:05:01.971Z,99605.06
2022-09-28T20:07:32.682Z,99612.06
2022-09-28T20:09:59.628Z,99611.22
2022-09-28T20:12:26.507Z,99604.28
2022-09-28T20:14:53.374Z,99610.38
2022-09-28T20:17:21.657Z,99611.31
2022-09-28T20:19:51.635Z,99613.06
2022-09-28T20:22:19.807Z,99613.97
2022-09-28T20:24:46.703Z,99623.56
2022-09-28T20:27:13.573Z,99621.81
2022-09-28T20:29:40.476Z,99626.19
2022-09-28T20:32:07.447Z,99627.06
2022-09-28T20:34:34.353Z,99623.66
2022-09-28T20:37:01.534Z,99632.41
2022-09-28T20:39:28.669Z,99632.44
2022-09-28T20:41:57.583Z,99639.47
2022-09-28T20:44:24.799Z,99636.94
2022-09-28T20:46:52.124Z,99634.38
2022-09-28T20:49:19.009Z,99635.28
2022-09-28T20:51:45.974Z,99631.06
2022-09-28T20:54:12.848Z,99630.31
2022-09-28T20:56:39.721Z,99639.91
2022-09-28T20:59:12.804Z,99632.16
2022-09-28T21:01:40.748Z,99644.41
2022-09-28T21:04:09.930Z,99642.72
2022-09-28T21:06:39.977Z,99642.81
2022-09-28T21:09:09.059Z,99648.13
2022-09-28T21:11:36.812Z,99654.22
2022-09-28T21:14:06.711Z,99643.00
2022-09-28T21:16:35.068Z,99650.03
2022-09-28T21:19:02.426Z,99652.66
2022-09-28T21:21:29.443Z,99652.72
2022-09-28T21:23:57.506Z,99657.16
2022-09-28T21:26:27.847Z,99661.50
2022-09-28T21:28:57.835Z,99657.16
2022-09-28T21:31:29.568Z,99659.81
2022-09-28T21:33:57.594Z,99659.84
2022-09-28T21:36:25.053Z,99660.72
2022-09-28T21:38:51.992Z,99652.13
2022-09-28T21:41:18.873Z,99658.19
2022-09-28T21:43:46.189Z,99660.06
2022-09-28T21:46:13.238Z,99671.28
2022-09-28T21:48:40.505Z,99667.84
2022-09-28T21:51:10.696Z,99666.13
2022-09-28T21:53:38.400Z,99671.34
2022-09-28T21:56:09.636Z,99674.84
2022-09-28T21:58:36.772Z,99673.16
2022-09-28T22:01:21.788Z,99674.06
2022-09-28T22:03:52.205Z,99674.13
2022-09-28T22:06:22.230Z,99685.41
2022-09-28T22:08:50.494Z,99684.56
2022-09-28T22:11:27.070Z,99676.81
2022-09-28T22:13:57.953Z,99673.41
2022-09-28T22:16:29.331Z,99680.31
2022-09-28T22:18:56.879Z,99676.03
2022-09-28T22:21:33.322Z,99677.78
2022-09-28T22:24:02.221Z,99680.41
2022-09-28T22:26:31.788Z,99674.38
2022-09-28T22:29:02.113Z,99686.53
2022-09-28T22:31:35.950Z,99679.59
2022-09-28T22:34:03.786Z,99687.44
2022-09-28T22:36:31.011Z,99679.69
2022-09-28T22:38:59.388Z,99684.00
2022-09-28T22:41:26.592Z,99688.41
2022-09-28T22:43:54.759Z,99688.41
2022-09-28T22:46:31.720Z,99685.00
2022-09-28T22:48:59.334Z,99697.13
2022-09-28T22:51:29.222Z,99688.50
2022-09-28T22:53:56.707Z,99690.25
2022-09-28T22:56:23.981Z,99685.97
2022-09-28T22:58:50.882Z,99692.00
2022-09-28T23:01:29.532Z,99697.31
2022-09-28T23:03:57.921Z,99699.88
2022-09-28T23:06:28.314Z,99693.84
2022-09-28T23:08:55.209Z,99696.47
2022-09-28T23:11:22.184Z,99692.16
2022-09-28T23:13:55.476Z,99699.97
2022-09-28T23:16:25.401Z,99696.53
2022-09-28T23:18:54.720Z,99700.00
2022-09-28T23:21:25.089Z,99700.06
2022-09-28T23:24:03.014Z,99700.97
2022-09-28T23:26:32.694Z,99700.97
2022-09-28T23:29:00.413Z,99701.84
2022-09-28T23:31:30.367Z,99711.41
2022-09-28T23:34:04.205Z,99707.09
2022-09-28T23:36:31.850Z,99714.06
2022-09-28T23:38:58.985Z,99707.97
2022-09-28T23:41:25.868Z,99710.59
2022-09-28T23:43:52.755Z,99701.91
2022-09-28T23:46:20.926Z,99708.00
2022-09-28T23:48:49.316Z,99709.75
2022-09-28T23:51:16.340Z,99708.00
2022-09-28T23:53:43.595Z,99704.56
2022-09-28T23:56:10.689Z,99706.31
2022-09-28T23:58:37.569Z,99715.00
